createdAt,value
2017-08-22T00:01:21.497Z,83.90
2017-08-22T00:03:51.370Z,84.87
2017-08-22T00:06:20.880Z,84.11
2017-08-22T00:08:50.376Z,84.20
2017-08-22T00:11:19.941Z,84.48
2017-08-22T00:13:49.400Z,84.27
2017-08-22T00:16:28.668Z,84.48
2017-08-22T00:19:03.144Z,84.55
2017-08-22T00:21:34.083Z,84.86
2017-08-22T00:24:03.512Z,85.39
2017-08-22T00:26:33.032Z,85.48
2017-08-22T00:29:07.865Z,85.56
2017-08-22T00:31:40.187Z,85.62
2017-08-22T00:34:09.670Z,85.74
2017-08-22T00:36:39.294Z,85.46
2017-08-22T00:39:08.762Z,84.74
2017-08-22T00:41:38.168Z,85.07
2017-08-22T00:44:08.082Z,85.66
2017-08-22T00:46:38.626Z,85.75
2017-08-22T00:49:08.076Z,86.09
2017-08-22T00:51:37.646Z,86.33
2017-08-22T00:54:07.216Z,86.30
2017-08-22T00:56:36.643Z,86.15
2017-08-22T00:59:06.023Z,86.27
2017-08-22T01:01:35.649Z,86.06
2017-08-22T01:04:10.377Z,85.75
2017-08-22T01:06:46.743Z,86.36
2017-08-22T01:09:16.272Z,86.23
2017-08-22T01:11:45.759Z,85.77
2017-08-22T01:14:15.243Z,85.98
2017-08-22T01:16:48.691Z,86.59
2017-08-22T01:19:19.491Z,87.86
2017-08-22T01:21:49.133Z,86.70
2017-08-22T01:24:19.660Z,87.28
2017-08-22T01:26:53.445Z,86.62
2017-08-22T01:29:23.219Z,86.06
2017-08-22T01:31:52.743Z,86.92
2017-08-22T01:34:27.550Z,86.87
2017-08-22T01:37:04.937Z,86.90
2017-08-22T01:39:35.103Z,87.01
2017-08-22T01:42:04.836Z,86.24
2017-08-22T01:44:36.409Z,86.85
2017-08-22T01:47:06.008Z,86.89
2017-08-22T01:49:35.549Z,86.67
2017-08-22T01:52:05.055Z,87.26
2017-08-22T01:54:34.717Z,87.92
2017-08-22T01:57:05.069Z,87.25
2017-08-22T01:59:34.696Z,87.51
2017-08-22T02:02:04.309Z,86.65
2017-08-22T02:04:35.946Z,87.43
2017-08-22T02:07:06.816Z,86.90
2017-08-22T02:09:36.351Z,87.11
2017-08-22T02:12:06.074Z,86.87
2017-08-22T02:14:35.732Z,86.93
2017-08-22T02:17:07.549Z,87.01
2017-08-22T02:19:37.078Z,86.29
2017-08-22T02:22:16.834Z,85.73
2017-08-22T02:24:49.139Z,86.56
2017-08-22T02:27:19.031Z,86.03
2017-08-22T02:29:58.086Z,86.33
2017-08-22T02:32:32.048Z,86.19
2017-08-22T02:35:01.880Z,86.80
2017-08-22T02:37:32.989Z,86.89
2017-08-22T02:40:02.543Z,86.86
2017-08-22T02:42:32.146Z,87.49
2017-08-22T02:45:07.014Z,86.77
2017-08-22T02:47:49.191Z,87.98
2017-08-22T02:50:23.888Z,87.16
2017-08-22T02:52:53.513Z,87.38
2017-08-22T02:55:23.108Z,87.87
2017-08-22T02:57:52.611Z,88.05
2017-08-22T03:00:35.003Z,87.67
2017-08-22T03:03:08.931Z,88.49
2017-08-22T03:05:39.559Z,87.11
2017-08-22T03:08:09.172Z,87.62
2017-08-22T03:10:40.076Z,87.70
2017-08-22T03:13:09.985Z,88.01
2017-08-22T03:15:45.625Z,87.50
2017-08-22T03:18:21.417Z,87.85
2017-08-22T03:20:53.164Z,87.30
2017-08-22T03:23:22.654Z,87.78
2017-08-22T03:25:52.200Z,87.84
2017-08-22T03:28:21.767Z,88.00
2017-08-22T03:31:06.276Z,87.98
2017-08-22T03:33:44.716Z,87.94
2017-08-22T03:36:15.716Z,87.22
2017-08-22T03:38:45.209Z,88.00
2017-08-22T03:41:14.954Z,87.00
2017-08-22T03:43:44.348Z,87.66
2017-08-22T03:46:25.834Z,87.96
2017-08-22T03:49:04.896Z,88.86
2017-08-22T03:51:36.357Z,88.16
2017-08-22T03:54:05.982Z,88.13
2017-08-22T03:56:35.673Z,88.25
2017-08-22T03:59:05.800Z,87.97
2017-08-22T04:01:35.528Z,87.85
2017-08-22T04:04:05.289Z,87.03
2017-08-22T04:06:34.816Z,87.87
2017-08-22T04:09:09.799Z,88.12
2017-08-22T04:11:42.808Z,87.30
2017-08-22T04:14:12.477Z,87.92
2017-08-22T04:16:42.001Z,86.98
2017-08-22T04:19:11.546Z,86.53
2017-08-22T04:21:41.051Z,87.66
2017-08-22T04:24:16.054Z,87.84
2017-08-22T04:26:46.424Z,87.04
2017-08-22T04:29:18.769Z,86.98
2017-08-22T04:31:49.500Z,87.20
2017-08-22T04:34:19.450Z,87.76
2017-08-22T04:36:48.956Z,86.85
2017-08-22T04:39:18.350Z,87.26
2017-08-22T04:41:48.713Z,86.86
2017-08-22T04:44:18.080Z,86.98
2017-08-22T04:46:47.564Z,87.94
2017-08-22T04:49:16.956Z,86.34
2017-08-22T04:52:26.691Z,86.40
2017-08-22T04:55:02.309Z,86.20
2017-08-22T04:57:34.379Z,86.90
2017-08-22T05:00:04.783Z,86.21
2017-08-22T05:02:34.697Z,86.91
2017-08-22T05:05:04.395Z,87.25
2017-08-22T05:07:52.596Z,86.19
2017-08-22T05:10:29.045Z,87.68
2017-08-22T05:13:00.712Z,88.29
2017-08-22T05:15:30.919Z,87.22
2017-08-22T05:18:00.389Z,86.41
2017-08-22T05:20:29.837Z,86.75
2017-08-22T05:22:59.724Z,85.64
2017-08-22T05:25:29.485Z,86.09
2017-08-22T05:27:59.095Z,85.55
2017-08-22T05:30:29.612Z,85.90
2017-08-22T05:32:59.260Z,85.05
2017-08-22T05:35:28.705Z,86.08
2017-08-22T05:37:57.997Z,85.48
2017-08-22T05:40:27.372Z,84.72
2017-08-22T05:42:56.745Z,84.75
2017-08-22T05:45:26.106Z,84.60
2017-08-22T05:47:55.423Z,84.40
2017-08-22T05:50:24.893Z,84.00
2017-08-22T05:52:54.683Z,83.68
2017-08-22T05:55:24.049Z,84.22
2017-08-22T05:57:53.781Z,83.38
2017-08-22T06:00:23.168Z,81.83
2017-08-22T06:02:52.487Z,81.90
2017-08-22T06:05:21.985Z,81.01
2017-08-22T06:07:51.285Z,80.65
2017-08-22T06:10:20.660Z,78.89
2017-08-22T06:12:50.057Z,76.47
2017-08-22T06:15:19.436Z,75.66
2017-08-22T06:17:51.568Z,74.61
2017-08-22T06:20:21.037Z,74.06
2017-08-22T06:22:50.443Z,74.10
2017-08-22T06:25:19.881Z,73.20
2017-08-22T06:27:49.237Z,73.13
2017-08-22T06:30:18.661Z,74.09
2017-08-22T06:32:47.990Z,72.28
2017-08-22T06:35:17.409Z,71.15
2017-08-22T06:37:47.301Z,71.61
2017-08-22T06:40:16.889Z,70.53
2017-08-22T06:42:46.248Z,70.46
2017-08-22T06:45:15.731Z,70.90
2017-08-22T06:47:45.127Z,70.97
2017-08-22T06:50:14.494Z,69.45
2017-08-22T06:52:43.850Z,69.37
2017-08-22T06:55:13.203Z,69.11
2017-08-22T06:57:42.543Z,71.22
2017-08-22T07:00:14.158Z,70.51
2017-08-22T07:02:43.672Z,71.70
2017-08-22T07:05:13.208Z,73.01
2017-08-22T07:07:42.537Z,72.39
2017-08-22T07:10:11.982Z,71.26
2017-08-22T07:12:42.125Z,71.94
2017-08-22T07:15:11.542Z,73.56
2017-08-22T07:17:40.943Z,72.88
2017-08-22T07:20:13.014Z,70.89
2017-08-22T07:22:42.567Z,70.89
2017-08-22T07:27:49.252Z,71.36
2017-08-22T07:30:18.792Z,71.13
2017-08-22T07:32:49.056Z,71.19
2017-08-22T07:35:19.381Z,71.74
2017-08-22T07:37:48.765Z,72.58
2017-08-22T07:40:18.229Z,71.54
2017-08-22T07:42:47.603Z,71.33
2017-08-22T07:45:17.718Z,71.15
2017-08-22T07:47:47.957Z,72.29
2017-08-22T07:50:18.669Z,71.85
2017-08-22T07:52:50.698Z,71.43
2017-08-22T07:55:20.338Z,71.71
2017-08-22T07:57:49.704Z,72.87
2017-08-22T08:00:20.907Z,72.43
2017-08-22T08:02:50.817Z,72.47
2017-08-22T08:05:20.173Z,72.58
2017-08-22T08:07:49.576Z,73.94
2017-08-22T08:10:18.960Z,72.44
2017-08-22T08:12:48.751Z,73.32
2017-08-22T08:15:18.559Z,72.27
2017-08-22T08:17:48.504Z,72.98
2017-08-22T08:20:17.896Z,73.25
2017-08-22T08:22:47.728Z,73.71
2017-08-22T08:26:31.952Z,74.09
2017-08-22T08:29:02.297Z,73.54
2017-08-22T08:31:31.858Z,73.79
2017-08-22T08:34:01.449Z,73.51
2017-08-22T08:36:30.824Z,74.83
2017-08-22T08:39:00.419Z,74.05
2017-08-22T08:41:29.776Z,74.30
2017-08-22T08:44:00.246Z,73.80
2017-08-22T08:46:30.145Z,74.49
2017-08-22T08:48:59.502Z,74.35
2017-08-22T08:51:29.042Z,72.89
2017-08-22T08:53:58.594Z,72.27
2017-08-22T08:56:28.365Z,72.57
2017-08-22T08:58:58.339Z,71.77
2017-08-22T09:01:27.997Z,70.27
2017-08-22T09:03:57.387Z,70.90
2017-08-22T09:06:26.838Z,70.03
2017-08-22T09:08:57.124Z,70.42
2017-08-22T09:11:26.647Z,70.28
2017-08-22T09:13:56.908Z,69.28
2017-08-22T09:16:26.524Z,69.45
2017-08-22T09:18:55.942Z,68.74
2017-08-22T09:21:25.552Z,69.24
2017-08-22T09:23:54.922Z,70.30
2017-08-22T09:26:24.516Z,71.62
2017-08-22T09:28:53.950Z,69.58
2017-08-22T09:31:23.402Z,69.13
2017-08-22T09:33:52.883Z,68.80
2017-08-22T09:36:22.326Z,68.87
2017-08-22T09:38:52.796Z,68.22
2017-08-22T09:41:22.757Z,68.57
2017-08-22T09:43:52.579Z,67.97
2017-08-22T09:46:22.063Z,68.02
2017-08-22T09:48:51.486Z,66.24
2017-08-22T09:51:20.864Z,65.96
2017-08-22T09:53:50.188Z,65.61
2017-08-22T09:56:19.648Z,62.85
2017-08-22T09:58:48.947Z,63.33
2017-08-22T10:01:18.364Z,64.39
2017-08-22T10:03:47.700Z,63.31
2017-08-22T10:06:17.202Z,63.86
2017-08-22T10:08:47.072Z,64.53
2017-08-22T10:11:16.441Z,63.99
2017-08-22T10:13:47.298Z,64.71
2017-08-22T10:16:21.957Z,65.69
2017-08-22T10:18:53.244Z,64.68
2017-08-22T10:21:23.134Z,65.49
2017-08-22T10:23:53.006Z,65.84
2017-08-22T10:26:22.557Z,66.05
2017-08-22T10:28:51.903Z,62.97
2017-08-22T10:31:21.280Z,63.10
2017-08-22T10:33:51.396Z,62.94
2017-08-22T10:36:20.809Z,63.05
2017-08-22T10:38:50.168Z,62.20
2017-08-22T10:41:19.592Z,56.20
2017-08-22T10:43:48.989Z,59.36
2017-08-22T10:46:18.434Z,56.46
2017-08-22T10:48:47.839Z,51.55
2017-08-22T10:51:17.240Z,51.00
2017-08-22T10:53:46.553Z,48.90
2017-08-22T10:56:15.936Z,48.58
2017-08-22T10:58:45.316Z,48.57
2017-08-22T11:01:14.778Z,50.54
2017-08-22T11:03:44.198Z,52.96
2017-08-22T11:06:13.583Z,53.39
2017-08-22T11:08:42.939Z,54.16
2017-08-22T11:11:12.617Z,54.17
2017-08-22T11:13:42.185Z,54.57
2017-08-22T11:16:14.070Z,55.44
2017-08-22T11:18:43.767Z,54.33
2017-08-22T11:21:13.757Z,55.70
2017-08-22T11:23:43.091Z,56.78
2017-08-22T11:26:12.509Z,55.71
2017-08-22T11:28:41.849Z,56.92
2017-08-22T11:31:12.187Z,56.99
2017-08-22T11:33:41.715Z,55.26
2017-08-22T11:36:11.176Z,54.90
2017-08-22T11:38:40.609Z,56.01
2017-08-22T11:41:10.026Z,56.46
2017-08-22T11:43:39.694Z,57.52
2017-08-22T11:46:09.181Z,57.80
2017-08-22T11:48:38.615Z,58.02
2017-08-22T11:51:08.021Z,57.76
2017-08-22T11:53:37.424Z,59.41
2017-08-22T11:56:06.749Z,59.84
2017-08-22T11:58:36.152Z,59.97
2017-08-22T12:01:06.012Z,60.49
2017-08-22T12:03:35.468Z,60.09
2017-08-22T12:06:04.858Z,59.44
2017-08-22T12:08:34.278Z,59.51
2017-08-22T12:11:04.075Z,60.09
2017-08-22T12:13:33.455Z,58.99
2017-08-22T12:16:03.551Z,59.88
2017-08-22T12:18:33.413Z,58.50
2017-08-22T12:21:02.921Z,59.82
2017-08-22T12:23:32.302Z,58.53
2017-08-22T12:26:01.966Z,57.83
2017-08-22T12:28:31.361Z,59.27
2017-08-22T12:31:00.806Z,59.47
2017-08-22T12:33:30.742Z,61.61
2017-08-22T12:36:00.255Z,59.28
2017-08-22T12:38:29.708Z,57.03
2017-08-22T12:40:59.108Z,56.74
2017-08-22T12:43:30.709Z,57.49
2017-08-22T12:46:01.736Z,59.58
2017-08-22T12:48:31.123Z,57.46
2017-08-22T12:51:00.732Z,56.96
2017-08-22T12:53:30.106Z,58.39
2017-08-22T12:56:00.090Z,56.57
2017-08-22T12:58:30.253Z,58.31
2017-08-22T13:00:59.926Z,58.90
2017-08-22T13:03:29.372Z,59.02
2017-08-22T13:05:58.943Z,59.39
2017-08-22T13:08:28.717Z,58.36
2017-08-22T13:10:58.322Z,58.68
2017-08-22T13:13:27.652Z,57.41
2017-08-22T13:15:57.296Z,58.88
2017-08-22T13:18:26.715Z,57.25
2017-08-22T13:20:56.368Z,59.21
2017-08-22T13:23:26.980Z,57.75
2017-08-22T13:25:56.713Z,57.38
2017-08-22T13:28:28.885Z,58.96
2017-08-22T13:30:58.465Z,58.94
2017-08-22T13:33:28.935Z,57.42
2017-08-22T13:35:58.821Z,58.55
2017-08-22T13:38:28.788Z,57.86
2017-08-22T13:40:58.237Z,57.58
2017-08-22T13:43:27.593Z,56.84
2017-08-22T13:45:57.007Z,57.22
2017-08-22T13:48:26.935Z,55.55
2017-08-22T13:50:59.000Z,56.86
2017-08-22T13:53:29.588Z,56.64
2017-08-22T13:55:59.999Z,58.27
2017-08-22T13:58:34.212Z,58.34
2017-08-22T14:01:04.181Z,58.09
2017-08-22T14:03:36.354Z,56.90
2017-08-22T14:06:07.593Z,56.43
2017-08-22T14:08:58.032Z,56.40
2017-08-22T14:11:30.568Z,57.39
2017-08-22T14:14:00.198Z,56.20
2017-08-22T14:16:29.870Z,54.87
2017-08-22T14:18:59.266Z,56.06
2017-08-22T14:21:28.753Z,54.92
2017-08-22T14:23:58.164Z,56.02
2017-08-22T14:26:28.510Z,55.60
2017-08-22T14:28:58.268Z,57.10
2017-08-22T14:31:28.236Z,58.64
2017-08-22T14:33:57.953Z,58.80
2017-08-22T14:36:30.460Z,57.56
2017-08-22T14:39:00.342Z,57.25
2017-08-22T14:41:29.901Z,57.20
2017-08-22T14:43:59.427Z,58.96
2017-08-22T14:46:28.849Z,57.37
2017-08-22T14:49:04.830Z,58.10
2017-08-22T14:51:36.235Z,58.28
2017-08-22T14:54:08.438Z,59.69
2017-08-22T14:56:38.050Z,58.77
2017-08-22T14:59:07.470Z,59.02
2017-08-22T15:01:36.961Z,58.68
2017-08-22T15:04:07.299Z,57.21
2017-08-22T15:06:36.794Z,57.14
2017-08-22T15:09:06.229Z,58.16
2017-08-22T15:11:37.388Z,56.91
2017-08-22T15:14:14.412Z,57.95
2017-08-22T15:16:44.025Z,58.89
2017-08-22T15:19:13.440Z,57.22
2017-08-22T15:21:43.250Z,57.20
2017-08-22T15:24:14.096Z,60.54
2017-08-22T15:26:45.793Z,59.12
2017-08-22T15:29:16.891Z,56.99
2017-08-22T15:31:48.716Z,56.69
2017-08-22T15:34:22.664Z,56.72
2017-08-22T15:36:53.084Z,56.70
2017-08-22T15:39:25.251Z,58.60
2017-08-22T15:41:58.377Z,58.22
2017-08-22T15:44:29.105Z,57.92
2017-08-22T15:46:58.758Z,59.69
2017-08-22T15:49:32.668Z,57.35
2017-08-22T15:52:02.123Z,57.92
2017-08-22T15:54:31.534Z,58.22
2017-08-22T15:57:00.958Z,58.02
2017-08-22T15:59:30.283Z,58.38
2017-08-22T16:02:01.673Z,59.29
2017-08-22T16:04:32.688Z,59.80
2017-08-22T16:07:04.331Z,60.57
2017-08-22T16:09:33.848Z,59.33
2017-08-22T16:12:04.800Z,59.92
2017-08-22T16:14:34.243Z,59.81
2017-08-22T16:17:03.817Z,61.00
2017-08-22T16:19:33.422Z,60.51
2017-08-22T16:22:02.814Z,60.81
2017-08-22T16:24:34.256Z,61.02
2017-08-22T16:27:03.759Z,61.71
2017-08-22T16:29:33.958Z,62.07
2017-08-22T16:34:47.365Z,60.52
2017-08-22T16:37:17.176Z,61.47
2017-08-22T16:39:46.564Z,60.33
2017-08-22T16:42:15.987Z,60.76
2017-08-22T16:44:45.462Z,59.18
2017-08-22T16:47:14.851Z,58.83
2017-08-22T16:49:45.289Z,58.20
2017-08-22T16:52:16.563Z,58.69
2017-08-22T16:54:47.376Z,57.51
2017-08-22T16:57:17.221Z,58.85
2017-08-22T16:59:47.290Z,58.62
2017-08-22T17:02:16.712Z,59.15
2017-08-22T17:04:47.198Z,57.58
2017-08-22T17:07:18.174Z,59.44
2017-08-22T17:09:47.505Z,59.97
2017-08-22T17:12:17.014Z,60.71
2017-08-22T17:14:46.526Z,59.79
2017-08-22T17:17:16.065Z,58.71
2017-08-22T17:19:47.366Z,59.51
2017-08-22T17:22:17.908Z,60.90
2017-08-22T17:24:47.293Z,60.75
2017-08-22T17:27:16.807Z,59.28
2017-08-22T17:29:46.451Z,60.38
2017-08-22T17:32:15.908Z,60.22
2017-08-22T17:34:45.275Z,62.21
2017-08-22T17:37:14.709Z,61.78
2017-08-22T17:39:44.503Z,63.05
2017-08-22T17:42:14.041Z,62.87
2017-08-22T17:44:43.499Z,62.40
2017-08-22T17:47:15.146Z,64.91
2017-08-22T17:49:44.468Z,65.03
2017-08-22T17:52:13.970Z,66.87
2017-08-22T17:54:43.415Z,65.91
2017-08-22T17:57:12.795Z,66.68
2017-08-22T17:59:42.290Z,67.19
2017-08-22T18:02:19.720Z,66.53
2017-08-22T18:07:58.505Z,66.30
2017-08-22T18:10:28.093Z,67.90
2017-08-22T18:12:57.462Z,66.89
2017-08-22T18:15:27.231Z,67.18
2017-08-22T18:17:56.813Z,69.95
2017-08-22T18:20:27.300Z,67.92
2017-08-22T18:22:57.222Z,70.26
2017-08-22T18:25:26.899Z,69.14
2017-08-22T18:27:56.900Z,69.80
2017-08-22T18:30:41.239Z,69.05
2017-08-22T18:33:13.151Z,69.15
2017-08-22T18:35:45.790Z,69.78
2017-08-22T18:38:16.664Z,69.86
2017-08-22T18:40:46.278Z,70.53
2017-08-22T18:43:40.598Z,70.73
2017-08-22T18:46:10.040Z,71.53
2017-08-22T18:48:39.462Z,72.85
2017-08-22T18:51:08.957Z,71.91
2017-08-22T18:53:38.315Z,71.28
2017-08-22T18:56:07.732Z,71.99
2017-08-22T18:58:37.849Z,72.12
2017-08-22T19:01:07.274Z,72.52
2017-08-22T19:03:36.625Z,73.31
2017-08-22T19:06:06.046Z,73.97
2017-08-22T19:08:35.476Z,73.72
2017-08-22T19:11:04.895Z,73.80
2017-08-22T19:13:34.967Z,74.13
2017-08-22T19:16:04.435Z,74.12
2017-08-22T19:18:33.785Z,74.29
2017-08-22T19:21:03.132Z,74.87
2017-08-22T19:23:32.504Z,74.73
2017-08-22T19:26:01.987Z,75.21
2017-08-22T19:28:31.381Z,75.35
2017-08-22T19:31:01.036Z,75.85
2017-08-22T19:33:30.341Z,76.04
2017-08-22T19:35:59.767Z,75.87
2017-08-22T19:38:29.178Z,76.26
2017-08-22T19:40:58.591Z,76.76
2017-08-22T19:43:28.108Z,77.15
2017-08-22T19:45:57.628Z,77.54
2017-08-22T19:48:27.060Z,77.24
2017-08-22T19:50:57.143Z,77.54
2017-08-22T19:53:26.824Z,77.75
2017-08-22T19:55:57.048Z,78.46
2017-08-22T19:58:27.000Z,78.38
2017-08-22T20:00:56.459Z,78.69
2017-08-22T20:03:28.520Z,78.79
2017-08-22T20:05:58.001Z,79.10
2017-08-22T20:08:27.356Z,78.48
2017-08-22T20:10:56.915Z,78.82
2017-08-22T20:13:26.783Z,78.70
2017-08-22T20:15:56.302Z,78.92
2017-08-22T20:18:25.693Z,79.17
2017-08-22T20:20:55.298Z,79.60
2017-08-22T20:23:28.772Z,79.92
2017-08-22T20:25:58.376Z,79.90
2017-08-22T20:28:28.172Z,80.21
2017-08-22T20:30:57.981Z,80.71
2017-08-22T20:33:27.519Z,79.89
2017-08-22T20:35:57.606Z,79.91
2017-08-22T20:38:27.068Z,80.30
2017-08-22T20:40:56.662Z,80.06
2017-08-22T20:43:26.314Z,80.44
2017-08-22T20:45:55.765Z,80.61
2017-08-22T20:48:25.333Z,80.80
2017-08-22T20:50:54.862Z,81.06
2017-08-22T20:53:24.365Z,80.94
2017-08-22T20:55:54.850Z,80.75
2017-08-22T20:58:24.395Z,80.98
2017-08-22T21:00:54.889Z,80.94
2017-08-22T21:03:24.995Z,81.05
2017-08-22T21:05:54.963Z,81.65
2017-08-22T21:08:24.376Z,81.42
2017-08-22T21:10:54.144Z,81.63
2017-08-22T21:13:23.486Z,81.47
2017-08-22T21:15:53.293Z,81.47
2017-08-22T21:18:24.162Z,81.35
2017-08-22T21:20:53.841Z,81.88
2017-08-22T21:23:23.378Z,81.85
2017-08-22T21:25:53.062Z,82.62
2017-08-22T21:28:22.648Z,82.74
2017-08-22T21:30:52.087Z,81.90
2017-08-22T21:33:27.421Z,81.37
2017-08-22T21:35:56.832Z,82.11
2017-08-22T21:38:26.414Z,81.94
2017-08-22T21:40:56.730Z,82.54
2017-08-22T21:43:26.728Z,82.06
2017-08-22T21:45:57.067Z,82.14
2017-08-22T21:48:26.531Z,82.13
2017-08-22T21:50:56.267Z,82.15
2017-08-22T21:53:25.781Z,82.83
2017-08-22T21:55:56.924Z,82.52
2017-08-22T21:58:27.478Z,82.54
2017-08-22T22:00:59.954Z,81.71
2017-08-22T22:03:29.461Z,82.24
2017-08-22T22:05:59.642Z,82.78
2017-08-22T22:08:29.892Z,82.68
2017-08-22T22:10:59.316Z,83.51
2017-08-22T22:13:29.775Z,83.19
2017-08-22T22:15:59.458Z,82.69
2017-08-22T22:18:29.339Z,82.99
2017-08-22T22:20:58.899Z,82.73
2017-08-22T22:23:28.238Z,83.15
2017-08-22T22:25:57.745Z,82.82
2017-08-22T22:28:27.123Z,83.04
2017-08-22T22:30:56.650Z,83.27
2017-08-22T22:33:25.988Z,82.98
2017-08-22T22:35:56.200Z,83.18
2017-08-22T22:38:25.817Z,83.13
2017-08-22T22:40:55.514Z,82.67
2017-08-22T22:43:25.641Z,82.85
2017-08-22T22:45:56.764Z,82.76
2017-08-22T22:48:29.472Z,82.17
2017-08-22T22:51:00.185Z,82.56
2017-08-22T22:53:30.283Z,83.21
2017-08-22T22:55:59.625Z,83.34
2017-08-22T22:58:32.436Z,83.67
2017-08-22T23:01:05.076Z,83.30
2017-08-22T23:03:34.593Z,83.16
2017-08-22T23:06:04.005Z,83.33
2017-08-22T23:08:34.226Z,83.02
2017-08-22T23:11:03.720Z,82.76
2017-08-22T23:13:36.656Z,82.74
2017-08-22T23:16:06.639Z,83.31
2017-08-22T23:18:35.945Z,83.67
2017-08-22T23:21:05.291Z,83.26
2017-08-22T23:23:34.620Z,83.23
2017-08-22T23:26:03.981Z,83.31
2017-08-22T23:28:33.304Z,83.57
2017-08-22T23:31:02.671Z,83.54
2017-08-22T23:33:32.720Z,83.70
2017-08-22T23:36:02.292Z,83.57
2017-08-22T23:38:31.995Z,83.50
2017-08-22T23:41:02.389Z,84.15
2017-08-22T23:43:36.156Z,83.38
2017-08-22T23:46:08.314Z,82.89
2017-08-22T23:49:40.613Z,83.76
2017-08-22T23:52:10.455Z,84.28
2017-08-22T23:54:45.337Z,84.07
2017-08-22T23:57:15.514Z,83.26
2017-08-22T23:59:45.178Z,83.61
